logo tempoitalia

Diretta Meteo Ras Al Khaimah, Emirati Arabi Unitilunedì 31 agosto ore 09:30

Mappa
Sereno 40 °C Sereno 24 Ore: T.min 26 T.max 43
Ponente Nord Km/h 5.5 Punto di rugiada: 12 °C Umidità: 19% Visibilità: 10 Km
Il sole sorge alle: 05:56 Il sole tramonta alle: 18:37
31 Agosto 2026 09:30 tempo osservato: Sereno Sereno 40 19 1002 vento: Nord N 5.5
31 Agosto 2026 09:00 tempo osservato: Sereno Sereno 39 21 1002 vento: Nord N 5.5
31 Agosto 2026 08:30 tempo osservato: Sereno Sereno 36 26 1002 vento: Nord N 5.5
31 Agosto 2026 08:00 tempo osservato: Sereno Sereno 34 30 1002 vento: Nord NE 7.4
31 Agosto 2026 07:30 tempo osservato: Sereno Sereno 31 35 1002 vento: Nord N 7.4
31 Agosto 2026 07:00 tempo osservato: Sereno Sereno 29 39 1002 vento: Nord N 3.7
31 Agosto 2026 06:30 tempo osservato: Sereno Sereno 28 39 1001 vento: Nord N 1.8
31 Agosto 2026 06:00 tempo osservato: Sereno Sereno 29 35 1001 vento: Nord S 11.1
31 Agosto 2026 05:30 tempo osservato: Sereno Sereno 29 35 1001 vento: Nord S/SO 7.4
31 Agosto 2026 05:00 tempo osservato: Sereno Sereno 30 33 1001 vento: Nord S 16.7
31 Agosto 2026 04:30 tempo osservato: Sereno Sereno 31 33 1001 vento: Nord S 14.8
31 Agosto 2026 04:00 tempo osservato: Sereno Sereno 30 35 1000 vento: Nord S 13
31 Agosto 2026 03:00 tempo osservato: Sereno Sereno 26 47 1001 vento: Nord SO 7.4
31 Agosto 2026 02:30 tempo osservato: Sereno Sereno 27 44 1001 vento: Nord N 5.5
31 Agosto 2026 02:00 tempo osservato: Sereno Sereno 28 45 1001 vento: Nord S/SO 7.4
31 Agosto 2026 01:30 tempo osservato: Sereno Sereno 28 45 1001 vento: Nord S 7.4
31 Agosto 2026 01:00 tempo osservato: Sereno Sereno 28 45 1001 vento: Nord N 3.7
31 Agosto 2026 00:30 tempo osservato: Sereno Sereno 28 45 1001 vento: Nord N 3.7
31 Agosto 2026 00:00 tempo osservato: Sereno Sereno 29 42 1001 vento: Nord N 5.5
30 Agosto 2026 23:30 tempo osservato: Sereno Sereno 30 37 1001 vento: Nord N 5.5
30 Agosto 2026 23:00 tempo osservato: Sereno Sereno 31 40 1002 vento: Nord N 5.5
30 Agosto 2026 22:30 tempo osservato: Sereno Sereno 31 40 1002 vento: Nord O 11.1
30 Agosto 2026 22:00 tempo osservato: Sereno Sereno 30 42 1002 vento: Nord N 5.5
30 Agosto 2026 21:30 tempo osservato: Sereno Sereno 32 35 1001 vento: Nord N/NE 7.4
30 Agosto 2026 21:00 tempo osservato: Sereno Sereno 33 33 1001 vento: Nord N 3.7
30 Agosto 2026 20:30 tempo osservato: Sereno Sereno 34 32 1001 vento: Nord N 3.7
30 Agosto 2026 20:00 tempo osservato: Sereno Sereno 35 32 1000 vento: Nord S/SO 9.3
30 Agosto 2026 19:30 tempo osservato: Sereno Sereno 35 30 1000 vento: Nord N 3.7
30 Agosto 2026 19:00 tempo osservato: Sereno Sereno 37 28 1000 vento: Nord NO 7.4
30 Agosto 2026 18:30 tempo osservato: Sereno Sereno 38 25 1000 vento: Nord N/NO 9.3
30 Agosto 2026 18:00 tempo osservato: Sereno Sereno 39 26 1000 vento: Nord NO 9.3
30 Agosto 2026 17:30 tempo osservato: Sereno Sereno 40 23 1000 vento: Nord NO 13
30 Agosto 2026 17:00 tempo osservato: Sereno Sereno 41 23 1000 vento: Nord NO 14.8
30 Agosto 2026 16:30 tempo osservato: Sereno Sereno 41 24 1000 vento: Nord NO 16.7
30 Agosto 2026 16:00 tempo osservato: Sereno Sereno 41 24 1000 vento: Nord NO 18.5
30 Agosto 2026 15:30 tempo osservato: Sereno Sereno 41 23 1000 vento: Nord O/NO 22.2
30 Agosto 2026 15:00 tempo osservato: Sereno Sereno 43 17 1000 vento: Nord O/NO 24
30 Agosto 2026 14:30 tempo osservato: Sereno Sereno 42 20 1000 vento: Nord NO 14.8
30 Agosto 2026 14:00 tempo osservato: Sereno Sereno 42 22 1001 vento: Nord N/NO 14.8
30 Agosto 2026 13:30 tempo osservato: Sereno Sereno 43 21 1001 vento: Nord N 14.8
30 Agosto 2026 13:00 tempo osservato: Sereno Sereno 41 21 1002 vento: Nord N 14.8
30 Agosto 2026 12:30 tempo osservato: Sereno Sereno 40 21 1002 vento: Nord N/NO 14.8
30 Agosto 2026 12:00 tempo osservato: Sereno Sereno 41 19 1002 vento: Nord NO 7.4
30 Agosto 2026 11:30 tempo osservato: Sereno Sereno 40 19 1002 vento: Nord NO 13
30 Agosto 2026 11:00 tempo osservato: Sereno Sereno 40 19 1003 vento: Nord N 5.5
30 Agosto 2026 10:30 tempo osservato: Sereno Sereno 40 19 1003 vento: Nord N 9.3
30 Agosto 2026 10:00 tempo osservato: Sereno Sereno 40 19 1003 vento: Nord N 5.5